createdAt,value
2018-06-17T00:00:56.963Z,0.00
2018-06-17T00:02:50.496Z,0.00
2018-06-17T00:03:50.096Z,0.00
2018-06-17T00:05:43.536Z,0.00
2018-06-17T00:06:43.127Z,0.00
2018-06-17T00:08:36.644Z,0.00
2018-06-17T00:09:36.139Z,0.00
2018-06-17T00:11:29.586Z,0.00
2018-06-17T00:12:29.075Z,0.00
2018-06-17T00:14:22.538Z,0.00
2018-06-17T00:15:22.045Z,0.00
2018-06-17T00:17:15.589Z,0.00
2018-06-17T00:18:15.100Z,0.00
2018-06-17T00:20:10.063Z,0.00
2018-06-17T00:21:09.559Z,0.00
2018-06-17T00:23:03.161Z,0.00
2018-06-17T00:24:03.088Z,0.00
2018-06-17T00:25:56.484Z,0.00
2018-06-17T00:26:56.103Z,0.00
2018-06-17T00:28:49.156Z,0.00
2018-06-17T00:29:49.045Z,0.00
2018-06-17T00:31:42.077Z,0.00
2018-06-17T00:32:42.052Z,0.00
2018-06-17T00:34:35.096Z,0.00
2018-06-17T00:35:34.904Z,0.00
2018-06-17T00:37:28.070Z,0.00
2018-06-17T00:38:27.676Z,0.00
2018-06-17T00:40:21.150Z,0.00
2018-06-17T00:41:20.638Z,0.00
2018-06-17T00:43:14.162Z,0.00
2018-06-17T00:44:13.711Z,0.00
2018-06-17T00:46:07.170Z,0.00
2018-06-17T00:47:06.762Z,0.00
2018-06-17T00:49:00.131Z,0.00
2018-06-17T00:49:59.641Z,0.00
2018-06-17T00:51:53.055Z,0.00
2018-06-17T00:52:52.650Z,0.00
2018-06-17T00:54:45.987Z,0.00
2018-06-17T00:55:45.573Z,0.00
2018-06-17T00:57:39.025Z,0.00
2018-06-17T00:58:38.507Z,0.00
2018-06-17T01:00:44.238Z,0.00
2018-06-17T01:01:43.763Z,0.00
2018-06-17T01:03:37.662Z,0.00
2018-06-17T01:05:50.205Z,0.00
2018-06-17T01:06:49.738Z,0.00
2018-06-17T01:08:43.197Z,0.00
2018-06-17T01:09:42.670Z,0.00
2018-06-17T01:11:36.066Z,0.00
2018-06-17T01:12:35.950Z,0.00
2018-06-17T01:14:52.976Z,0.00
2018-06-17T01:15:32.488Z,0.00
2018-06-17T01:17:26.617Z,0.00
2018-06-17T01:18:26.574Z,0.00
2018-06-17T01:20:19.602Z,0.00
2018-06-17T01:21:19.078Z,0.00
2018-06-17T01:23:12.665Z,0.00
2018-06-17T01:25:25.691Z,0.00
2018-06-17T01:26:25.222Z,0.00
2018-06-17T01:27:26.063Z,0.00
2018-06-17T01:28:25.512Z,0.00
2018-06-17T01:29:25.905Z,0.00
2018-06-17T01:30:25.430Z,0.00
2018-06-17T01:31:25.388Z,0.00
2018-06-17T01:32:25.374Z,0.00
2018-06-17T01:33:24.904Z,0.00
2018-06-17T01:34:25.240Z,0.00
2018-06-17T01:35:25.216Z,0.00
2018-06-17T01:36:25.245Z,0.00
2018-06-17T01:37:25.171Z,0.00
2018-06-17T01:38:25.146Z,0.00
2018-06-17T01:39:25.050Z,0.00
2018-06-17T01:40:25.041Z,0.00
2018-06-17T01:41:25.046Z,0.00
2018-06-17T01:42:24.992Z,0.00
2018-06-17T01:43:24.949Z,0.00
2018-06-17T01:44:24.835Z,0.00
2018-06-17T01:45:24.479Z,0.00
2018-06-17T01:46:24.866Z,0.00
2018-06-17T01:47:24.782Z,0.00
2018-06-17T01:48:24.737Z,0.00
2018-06-17T01:49:25.229Z,0.00
2018-06-17T01:50:24.722Z,0.00
2018-06-17T01:51:24.641Z,0.00
2018-06-17T01:52:25.113Z,0.00
2018-06-17T01:53:24.499Z,0.00
2018-06-17T01:54:24.559Z,0.00
2018-06-17T01:55:24.976Z,0.00
2018-06-17T01:56:24.477Z,0.00
2018-06-17T01:57:24.415Z,0.00
2018-06-17T01:58:24.888Z,0.00
2018-06-17T01:59:24.326Z,0.00
2018-06-17T02:00:24.753Z,0.00
2018-06-17T02:01:23.861Z,0.00
2018-06-17T02:02:24.247Z,0.00
2018-06-17T02:03:24.173Z,0.00
2018-06-17T02:04:24.664Z,0.00
2018-06-17T02:05:24.623Z,0.00
2018-06-17T02:06:24.239Z,0.00
2018-06-17T02:07:24.028Z,0.00
2018-06-17T02:08:23.967Z,4.00
2018-06-17T02:09:24.023Z,4.00
2018-06-17T02:10:23.945Z,4.00
2018-06-17T02:11:23.908Z,0.00
2018-06-17T02:12:23.876Z,4.00
2018-06-17T02:13:23.828Z,4.00
2018-06-17T02:14:24.243Z,4.00
2018-06-17T02:15:23.730Z,4.00
2018-06-17T02:16:23.674Z,4.00
2018-06-17T02:17:23.670Z,8.00
2018-06-17T02:18:23.614Z,4.00
2018-06-17T02:19:23.563Z,8.00
2018-06-17T02:20:23.541Z,8.00
2018-06-17T02:21:23.127Z,12.00
2018-06-17T02:22:23.510Z,12.00
2018-06-17T02:23:23.431Z,12.00
2018-06-17T02:24:23.406Z,16.00
2018-06-17T02:25:23.393Z,16.00
2018-06-17T02:26:23.380Z,16.00
2018-06-17T02:27:23.305Z,20.00
2018-06-17T02:28:23.299Z,20.00
2018-06-17T02:29:23.184Z,24.00
2018-06-17T02:30:23.232Z,28.00
2018-06-17T02:31:23.165Z,32.00
2018-06-17T02:32:23.118Z,36.00
2018-06-17T02:33:23.108Z,40.00
2018-06-17T02:34:23.510Z,44.00
2018-06-17T02:35:22.654Z,52.00
2018-06-17T02:36:22.911Z,56.00
2018-06-17T02:37:22.895Z,68.00
2018-06-17T02:38:22.905Z,76.00
2018-06-17T02:39:22.906Z,80.00
2018-06-17T02:40:23.141Z,92.00
2018-06-17T02:41:22.772Z,100.00
2018-06-17T02:42:23.241Z,116.00
2018-06-17T02:43:23.244Z,124.00
2018-06-17T02:44:22.697Z,140.00
2018-06-17T02:45:22.650Z,152.00
2018-06-17T02:46:22.617Z,172.00
2018-06-17T02:47:22.561Z,188.00
2018-06-17T02:48:22.553Z,208.00
2018-06-17T02:49:23.521Z,228.00
2018-06-17T02:50:22.422Z,252.00
2018-06-17T02:51:22.933Z,276.00
2018-06-17T02:52:22.927Z,300.00
2018-06-17T02:53:21.983Z,328.00
2018-06-17T02:54:22.292Z,360.00
2018-06-17T02:55:22.302Z,392.00
2018-06-17T02:56:22.227Z,424.00
2018-06-17T02:57:22.161Z,460.00
2018-06-17T02:58:22.201Z,500.00
2018-06-17T02:59:22.126Z,536.00
2018-06-17T03:00:22.592Z,576.00
2018-06-17T03:01:22.523Z,620.00
2018-06-17T03:02:22.056Z,664.00
2018-06-17T03:03:22.022Z,712.00
2018-06-17T03:04:21.595Z,760.00
2018-06-17T03:05:21.941Z,808.00
2018-06-17T03:06:21.845Z,860.00
2018-06-17T03:07:21.789Z,908.00
2018-06-17T03:08:21.791Z,968.00
2018-06-17T03:09:21.819Z,1032.00
2018-06-17T03:10:21.694Z,1092.00
2018-06-17T03:11:21.670Z,1156.00
2018-06-17T03:12:21.613Z,1220.00
2018-06-17T03:13:21.597Z,1288.00
2018-06-17T03:14:22.094Z,1356.00
2018-06-17T03:15:22.049Z,1428.00
2018-06-17T03:16:21.529Z,1496.00
2018-06-17T03:17:21.449Z,1572.00
2018-06-17T03:18:21.380Z,1644.00
2018-06-17T03:19:21.403Z,1716.00
2018-06-17T03:20:20.982Z,1800.00
2018-06-17T03:21:21.338Z,1888.00
2018-06-17T03:22:21.292Z,1980.00
2018-06-17T03:23:21.742Z,2068.00
2018-06-17T03:24:21.739Z,2160.00
2018-06-17T03:25:21.656Z,2252.00
2018-06-17T03:26:21.307Z,2348.00
2018-06-17T03:27:21.041Z,2444.00
2018-06-17T03:28:21.085Z,2540.00
2018-06-17T03:29:21.478Z,2636.00
2018-06-17T03:30:21.446Z,2736.00
2018-06-17T03:31:20.975Z,2832.00
2018-06-17T03:32:21.375Z,2936.00
2018-06-17T03:33:20.873Z,3036.00
2018-06-17T03:34:20.876Z,3140.00
2018-06-17T03:35:20.804Z,3240.00
2018-06-17T03:36:21.226Z,3340.00
2018-06-17T03:37:21.261Z,3436.00
2018-06-17T03:38:21.132Z,3536.00
2018-06-17T03:39:20.689Z,3628.00
2018-06-17T03:40:20.168Z,3720.00
2018-06-17T03:41:20.592Z,3812.00
2018-06-17T03:42:20.468Z,3916.00
2018-06-17T03:43:20.493Z,4008.00
2018-06-17T03:44:20.490Z,4116.00
2018-06-17T03:45:20.426Z,4224.00
2018-06-17T03:46:20.809Z,4344.00
2018-06-17T03:47:20.380Z,4464.00
2018-06-17T03:48:20.316Z,4584.00
2018-06-17T03:49:20.293Z,4696.00
2018-06-17T03:50:20.744Z,4812.00
2018-06-17T03:51:20.176Z,4920.00
2018-06-17T03:52:20.187Z,5036.00
2018-06-17T03:53:20.136Z,5152.00
2018-06-17T03:54:20.575Z,5276.00
2018-06-17T03:55:20.527Z,5396.00
2018-06-17T03:56:20.017Z,5548.00
2018-06-17T03:57:19.963Z,5692.00
2018-06-17T03:58:19.560Z,5812.00
2018-06-17T03:59:20.393Z,5940.00
2018-06-17T04:00:19.824Z,6112.00
2018-06-17T04:01:20.359Z,6336.00
2018-06-17T04:02:20.238Z,6532.00
2018-06-17T04:03:19.713Z,6836.00
2018-06-17T04:04:19.714Z,8008.00
2018-06-17T04:05:19.708Z,9352.00
2018-06-17T04:06:19.573Z,10060.00
2018-06-17T04:07:20.127Z,10276.00
2018-06-17T04:08:19.511Z,10576.00
2018-06-17T04:09:19.539Z,10840.00
2018-06-17T04:10:19.543Z,10996.00
2018-06-17T04:11:19.451Z,11144.00
2018-06-17T04:12:19.462Z,11328.00
2018-06-17T04:13:19.354Z,11536.00
2018-06-17T04:14:19.332Z,11736.00
2018-06-17T04:15:19.785Z,11848.00
2018-06-17T04:16:19.271Z,12028.00
2018-06-17T04:17:19.736Z,12392.00
2018-06-17T04:18:19.700Z,12688.00
2018-06-17T04:19:19.175Z,12940.00
2018-06-17T04:20:19.131Z,13408.00
2018-06-17T04:21:19.601Z,13684.00
2018-06-17T04:22:19.102Z,13924.00
2018-06-17T04:23:19.022Z,14236.00
2018-06-17T04:24:19.003Z,14944.00
2018-06-17T04:25:19.461Z,15360.00
2018-06-17T04:26:18.507Z,15328.00
2018-06-17T04:27:18.906Z,15584.00
2018-06-17T04:28:18.817Z,16128.00
2018-06-17T04:29:19.330Z,16800.00
2018-06-17T04:30:18.736Z,17120.00
2018-06-17T04:31:18.747Z,17568.00
2018-06-17T04:32:19.238Z,17952.00
2018-06-17T04:33:19.180Z,18336.00
2018-06-17T04:34:19.098Z,18080.00
2018-06-17T04:35:18.633Z,17632.00
2018-06-17T04:36:18.574Z,17920.00
2018-06-17T04:37:18.540Z,18336.00
2018-06-17T04:38:18.987Z,18752.00
2018-06-17T04:39:18.503Z,18272.00
2018-06-17T04:40:18.380Z,17920.00
2018-06-17T04:41:18.451Z,17952.00
2018-06-17T04:42:18.400Z,19296.00
2018-06-17T04:43:18.331Z,19872.00
2018-06-17T04:44:18.304Z,20064.00
2018-06-17T04:45:18.259Z,19744.00
2018-06-17T04:46:18.225Z,20640.00
2018-06-17T04:47:18.691Z,21312.00
2018-06-17T04:48:17.766Z,22816.00
2018-06-17T04:49:18.180Z,23648.00
2018-06-17T04:50:18.606Z,24320.00
2018-06-17T04:51:18.079Z,24608.00
2018-06-17T04:52:18.080Z,24320.00
2018-06-17T04:53:18.036Z,24256.00
2018-06-17T04:54:18.031Z,24352.00
2018-06-17T04:55:18.003Z,24768.00
2018-06-17T04:56:17.859Z,25696.00
2018-06-17T04:57:18.470Z,25664.00
2018-06-17T04:58:17.847Z,25728.00
2018-06-17T04:59:17.874Z,25952.00
2018-06-17T05:00:19.633Z,25696.00
2018-06-17T05:01:17.789Z,25536.00
2018-06-17T05:02:17.752Z,26528.00
2018-06-17T05:03:17.735Z,27424.00
2018-06-17T05:04:17.663Z,27648.00
2018-06-17T05:05:17.252Z,27872.00
2018-06-17T05:06:17.592Z,28448.00
2018-06-17T05:07:17.628Z,29728.00
2018-06-17T05:08:17.541Z,30560.00
2018-06-17T05:09:17.572Z,31104.00
2018-06-17T05:10:18.006Z,30720.00
2018-06-17T05:11:17.486Z,30176.00
2018-06-17T05:12:17.453Z,30016.00
2018-06-17T05:13:17.348Z,29856.00
2018-06-17T05:14:17.402Z,30080.00
2018-06-17T05:15:17.341Z,30240.00
2018-06-17T05:16:17.331Z,31104.00
2018-06-17T05:17:17.748Z,30976.00
2018-06-17T05:18:17.780Z,30912.00
2018-06-17T05:19:16.851Z,31808.00
2018-06-17T05:20:17.251Z,31712.00
2018-06-17T05:21:17.195Z,31648.00
2018-06-17T05:22:17.166Z,33952.00
2018-06-17T05:23:17.146Z,35264.00
2018-06-17T05:24:17.152Z,34048.00
2018-06-17T05:25:17.067Z,33216.00
2018-06-17T05:26:17.066Z,35680.00
2018-06-17T05:27:16.930Z,37728.00
2018-06-17T05:28:16.955Z,39456.00
2018-06-17T05:29:16.960Z,42144.00
2018-06-17T05:30:16.978Z,44256.00
2018-06-17T05:31:16.539Z,44512.00
2018-06-17T05:32:16.948Z,44768.00
2018-06-17T05:33:16.873Z,44256.00
2018-06-17T05:34:16.772Z,42688.00
2018-06-17T05:35:16.803Z,40672.00
2018-06-17T05:36:16.822Z,41312.00
2018-06-17T05:37:16.756Z,41568.00
2018-06-17T05:38:16.769Z,39744.00
2018-06-17T05:39:16.653Z,36672.00
2018-06-17T05:40:17.214Z,20832.00
2018-06-17T05:41:16.577Z,30560.00
2018-06-17T05:42:16.614Z,41856.00
2018-06-17T05:43:17.119Z,38432.00
2018-06-17T05:44:17.071Z,29152.00
2018-06-17T05:45:16.575Z,21280.00
2018-06-17T05:46:16.557Z,17584.00
2018-06-17T05:47:16.100Z,17356.00
2018-06-17T05:48:16.466Z,17536.00
2018-06-17T05:49:16.501Z,19712.00
2018-06-17T05:50:16.440Z,18268.00
2018-06-17T05:51:16.391Z,17920.00
2018-06-17T05:52:16.387Z,17108.00
2018-06-17T05:53:16.372Z,16920.00
2018-06-17T05:54:16.326Z,16880.00
2018-06-17T05:55:16.255Z,16732.00
2018-06-17T05:56:16.240Z,16848.00
2018-06-17T05:57:16.240Z,17392.00
2018-06-17T05:58:16.228Z,17928.00
2018-06-17T05:59:15.753Z,17268.00
2018-06-17T06:00:16.664Z,17672.00
2018-06-17T06:01:19.071Z,18020.00
2018-06-17T06:02:16.195Z,17284.00
2018-06-17T06:03:16.555Z,16996.00
2018-06-17T06:04:16.055Z,17208.00
2018-06-17T06:05:16.021Z,19776.00
2018-06-17T06:06:15.919Z,25600.00
2018-06-17T06:07:15.951Z,30688.00
2018-06-17T06:08:15.899Z,28896.00
2018-06-17T06:09:15.918Z,25344.00
2018-06-17T06:10:15.868Z,24672.00
2018-06-17T06:11:15.791Z,27520.00
2018-06-17T06:12:15.814Z,28576.00
2018-06-17T06:13:15.792Z,24448.00
2018-06-17T06:14:15.345Z,27456.00
2018-06-17T06:15:16.253Z,31392.00
2018-06-17T06:16:16.265Z,36800.00
2018-06-17T06:17:15.700Z,45920.00
2018-06-17T06:18:15.641Z,52832.00
2018-06-17T06:19:15.625Z,52960.00
2018-06-17T06:20:15.552Z,54144.00
2018-06-17T06:21:15.629Z,53888.00
2018-06-17T06:22:15.546Z,43552.00
2018-06-17T06:23:15.548Z,30656.00
2018-06-17T06:24:15.509Z,25120.00
2018-06-17T06:25:15.508Z,23680.00
2018-06-17T06:26:15.440Z,27136.00
2018-06-17T06:27:15.421Z,28640.00
2018-06-17T06:28:15.427Z,27712.00
2018-06-17T06:29:15.316Z,28032.00
2018-06-17T06:30:14.957Z,24672.00
2018-06-17T06:31:15.329Z,22400.00
2018-06-17T06:32:15.185Z,21664.00
2018-06-17T06:33:15.286Z,21024.00
2018-06-17T06:34:15.265Z,20524.00
2018-06-17T06:35:15.654Z,20636.00
2018-06-17T06:36:15.191Z,19820.00
2018-06-17T06:37:15.138Z,20668.00
2018-06-17T06:38:15.139Z,20260.00
2018-06-17T06:39:15.101Z,20464.00
2018-06-17T06:40:15.071Z,19848.00
2018-06-17T06:41:15.535Z,20092.00
2018-06-17T06:42:15.001Z,20608.00
2018-06-17T06:43:15.031Z,20924.00
2018-06-17T06:44:15.482Z,21172.00
2018-06-17T06:45:14.823Z,21888.00
2018-06-17T06:46:14.516Z,22080.00
2018-06-17T06:47:14.864Z,23104.00
2018-06-17T06:48:14.828Z,22208.00
2018-06-17T06:49:14.860Z,23488.00
2018-06-17T06:50:14.758Z,30368.00
2018-06-17T06:51:14.768Z,39424.00
2018-06-17T06:52:14.767Z,58432.00
2018-06-17T06:53:14.713Z,54784.00
2018-06-17T06:54:14.619Z,55456.00
2018-06-17T06:55:14.667Z,54656.00
2018-06-17T06:56:14.657Z,59936.00
2018-06-17T06:57:14.250Z,65536.00
2018-06-17T06:58:14.551Z,66592.00
2018-06-17T06:59:14.499Z,70080.00
2018-06-17T07:00:14.487Z,70656.00
2018-06-17T07:01:14.458Z,71712.00
2018-06-17T07:02:14.430Z,75648.00
2018-06-17T07:03:14.954Z,79776.00
2018-06-17T07:04:14.393Z,84768.00
2018-06-17T07:05:14.338Z,84704.00
2018-06-17T07:06:14.262Z,80512.00
2018-06-17T07:07:14.317Z,75328.00
2018-06-17T07:08:14.290Z,75264.00
2018-06-17T07:09:14.209Z,77600.00
2018-06-17T07:10:14.242Z,79264.00
2018-06-17T07:11:13.828Z,80864.00
2018-06-17T07:12:14.085Z,82976.00
2018-06-17T07:13:14.121Z,87616.00
2018-06-17T07:14:14.119Z,91168.00
2018-06-17T07:15:14.094Z,86912.00
2018-06-17T07:16:14.004Z,82112.00
2018-06-17T07:17:14.072Z,80288.00
2018-06-17T07:18:14.023Z,80032.00
2018-06-17T07:19:14.511Z,79616.00
2018-06-17T07:20:14.055Z,80416.00
2018-06-17T07:21:13.962Z,85536.00
2018-06-17T07:22:13.970Z,87040.00
2018-06-17T07:23:14.446Z,86816.00
2018-06-17T07:24:13.865Z,87424.00
2018-06-17T07:25:13.435Z,87200.00
2018-06-17T07:26:13.771Z,83968.00
2018-06-17T07:27:13.833Z,86880.00
2018-06-17T07:28:13.802Z,88256.00
2018-06-17T07:29:14.348Z,88224.00
2018-06-17T07:30:13.766Z,86592.00
2018-06-17T07:31:13.723Z,81184.00
2018-06-17T07:32:13.729Z,79840.00
2018-06-17T07:33:13.660Z,82080.00
2018-06-17T07:34:13.661Z,82592.00
2018-06-17T07:35:13.694Z,85728.00
2018-06-17T07:36:13.775Z,89984.00
2018-06-17T07:37:13.655Z,92928.00
2018-06-17T07:38:13.616Z,95072.00
2018-06-17T07:39:13.169Z,91456.00
2018-06-17T07:40:13.526Z,88896.00
2018-06-17T07:41:13.519Z,89536.00
2018-06-17T07:42:13.564Z,89888.00
2018-06-17T07:43:13.505Z,88736.00
2018-06-17T07:44:15.075Z,81184.00
2018-06-17T07:45:13.487Z,79008.00
2018-06-17T07:46:13.664Z,83520.00
2018-06-17T07:47:13.051Z,90880.00
2018-06-17T07:48:12.999Z,95136.00
2018-06-17T07:49:12.970Z,67680.00
2018-06-17T07:50:12.890Z,99744.00
2018-06-17T07:51:13.024Z,96928.00
2018-06-17T07:52:12.959Z,92544.00
2018-06-17T07:53:13.244Z,88448.00
2018-06-17T07:54:13.246Z,86336.00
2018-06-17T07:55:12.962Z,86432.00
2018-06-17T07:56:13.232Z,86752.00
2018-06-17T07:57:13.155Z,91008.00
2018-06-17T07:58:13.175Z,99744.00
2018-06-17T07:59:13.105Z,102464.00
2018-06-17T08:00:13.641Z,99872.00
2018-06-17T08:01:13.047Z,93024.00
2018-06-17T08:02:13.073Z,88736.00
2018-06-17T08:03:13.060Z,90176.00
2018-06-17T08:04:12.692Z,90784.00
2018-06-17T08:05:12.970Z,78784.00
2018-06-17T08:06:13.050Z,88864.00
2018-06-17T08:07:12.990Z,87744.00
2018-06-17T08:08:12.968Z,93952.00
2018-06-17T08:09:12.909Z,95744.00
2018-06-17T08:10:12.921Z,97536.00
2018-06-17T08:11:12.846Z,95264.00
2018-06-17T08:12:12.882Z,94592.00
2018-06-17T08:13:12.843Z,90400.00
2018-06-17T08:14:12.840Z,85856.00
2018-06-17T08:15:12.425Z,84448.00
2018-06-17T08:16:12.786Z,82240.00
2018-06-17T08:17:12.798Z,86656.00
2018-06-17T08:18:12.660Z,93792.00
2018-06-17T08:19:12.755Z,97696.00
2018-06-17T08:20:12.788Z,98688.00
2018-06-17T08:21:12.665Z,106176.00
2018-06-17T08:22:12.660Z,112224.00
2018-06-17T08:23:12.721Z,113920.00
2018-06-17T08:24:12.634Z,111712.00
2018-06-17T08:25:12.524Z,109024.00
2018-06-17T08:26:12.272Z,102752.00
2018-06-17T08:27:12.646Z,95008.00
2018-06-17T08:28:12.557Z,96096.00
2018-06-17T08:29:12.561Z,104928.00
2018-06-17T08:30:12.516Z,109536.00
2018-06-17T08:31:12.492Z,107136.00
2018-06-17T08:32:12.488Z,106976.00
2018-06-17T08:33:12.495Z,114784.00
2018-06-17T08:34:12.405Z,118592.00
2018-06-17T08:35:12.441Z,134688.00
2018-06-17T08:36:12.413Z,81248.00
2018-06-17T08:37:12.351Z,50400.00
2018-06-17T08:38:12.400Z,55424.00
2018-06-17T08:39:12.324Z,101184.00
2018-06-17T08:40:11.944Z,55072.00
2018-06-17T08:41:12.275Z,68128.00
2018-06-17T08:42:12.359Z,60800.00
2018-06-17T08:43:12.228Z,72960.00
2018-06-17T08:44:12.272Z,60928.00
2018-06-17T08:45:12.247Z,46592.00
2018-06-17T08:46:12.252Z,45728.00
2018-06-17T08:47:12.708Z,50240.00
2018-06-17T08:48:12.250Z,45344.00
2018-06-17T08:49:12.207Z,43328.00
2018-06-17T08:50:12.088Z,42496.00
2018-06-17T08:51:12.176Z,44864.00
2018-06-17T08:52:12.118Z,76224.00
2018-06-17T08:53:12.182Z,46848.00
2018-06-17T08:54:12.006Z,42912.00
2018-06-17T08:55:12.036Z,39648.00
2018-06-17T08:56:12.013Z,37024.00
2018-06-17T08:57:11.921Z,35904.00
2018-06-17T08:58:11.995Z,35872.00
2018-06-17T08:59:12.008Z,35488.00
2018-06-17T09:00:11.562Z,34272.00
2018-06-17T09:01:11.901Z,32224.00
2018-06-17T09:02:11.853Z,29696.00
2018-06-17T09:03:11.917Z,27392.00
2018-06-17T09:04:11.868Z,25120.00
2018-06-17T09:05:11.827Z,23552.00
2018-06-17T09:06:11.792Z,22528.00
2018-06-17T09:07:11.756Z,21888.00
2018-06-17T09:08:11.744Z,21184.00
2018-06-17T09:09:11.750Z,20640.00
2018-06-17T09:10:11.640Z,20096.00
2018-06-17T09:11:11.668Z,19616.00
2018-06-17T09:12:11.589Z,18944.00
2018-06-17T09:13:11.662Z,17696.00
2018-06-17T09:14:11.257Z,16256.00
2018-06-17T09:15:11.619Z,15208.00
2018-06-17T09:16:11.109Z,14428.00
2018-06-17T09:17:11.204Z,13996.00
2018-06-17T09:18:11.068Z,14236.00
2018-06-17T09:19:11.033Z,14436.00
2018-06-17T09:20:11.015Z,14248.00
2018-06-17T09:21:11.026Z,13592.00
2018-06-17T09:22:10.974Z,12672.00
2018-06-17T09:23:10.952Z,11540.00
2018-06-17T09:24:10.920Z,10416.00
2018-06-17T09:25:10.949Z,9548.00
2018-06-17T09:26:10.878Z,9236.00
2018-06-17T09:27:10.843Z,9700.00
2018-06-17T09:28:11.312Z,10932.00
2018-06-17T09:29:10.764Z,12780.00
2018-06-17T09:30:10.806Z,15072.00
2018-06-17T09:31:10.725Z,17952.00
2018-06-17T09:32:10.741Z,19648.00
2018-06-17T09:33:10.676Z,20544.00
2018-06-17T09:34:10.670Z,21152.00
2018-06-17T09:35:10.603Z,21824.00
2018-06-17T09:36:10.579Z,22400.00
2018-06-17T09:37:10.668Z,23008.00
2018-06-17T09:38:10.519Z,23904.00
2018-06-17T09:39:10.523Z,25056.00
2018-06-17T09:40:10.477Z,26720.00
2018-06-17T09:41:10.428Z,28800.00
2018-06-17T09:42:10.454Z,31360.00
2018-06-17T09:43:10.397Z,34240.00
2018-06-17T09:44:10.402Z,37696.00
2018-06-17T09:45:10.492Z,41120.00
2018-06-17T09:46:10.335Z,44064.00
2018-06-17T09:47:10.268Z,45600.00
2018-06-17T09:48:10.258Z,43648.00
2018-06-17T09:49:10.209Z,42944.00
2018-06-17T09:50:10.189Z,42880.00
2018-06-17T09:51:10.148Z,43488.00
2018-06-17T09:52:10.145Z,44832.00
2018-06-17T09:53:10.121Z,47264.00
2018-06-17T09:54:10.077Z,50880.00
2018-06-17T09:55:10.061Z,54560.00
2018-06-17T09:56:10.012Z,59296.00
2018-06-17T09:57:09.998Z,74624.00
2018-06-17T09:58:09.956Z,69024.00
2018-06-17T09:59:09.916Z,67072.00
2018-06-17T10:00:09.888Z,64896.00
2018-06-17T10:01:09.897Z,61632.00
2018-06-17T10:02:09.833Z,58432.00
2018-06-17T10:03:09.813Z,56384.00
2018-06-17T10:04:09.782Z,56704.00
2018-06-17T10:05:09.761Z,57952.00
2018-06-17T10:06:09.734Z,58688.00
2018-06-17T10:07:09.746Z,59488.00
2018-06-17T10:08:09.713Z,61184.00
2018-06-17T10:09:09.732Z,65504.00
2018-06-17T10:10:09.630Z,68192.00
2018-06-17T10:11:09.663Z,70496.00
2018-06-17T10:12:09.573Z,76544.00
2018-06-17T10:13:09.537Z,77504.00
2018-06-17T10:14:09.518Z,80768.00
2018-06-17T10:15:09.516Z,81792.00
2018-06-17T10:16:09.467Z,102752.00
2018-06-17T10:17:09.448Z,87008.00
2018-06-17T10:18:09.406Z,81152.00
2018-06-17T10:19:09.380Z,84480.00
2018-06-17T10:20:09.385Z,83008.00
2018-06-17T10:21:09.377Z,90816.00
2018-06-17T10:22:09.298Z,80736.00
2018-06-17T10:23:09.309Z,96736.00
2018-06-17T10:24:09.271Z,124736.00
2018-06-17T10:25:09.243Z,114592.00
2018-06-17T10:26:09.202Z,89824.00
2018-06-17T10:27:09.190Z,78432.00
2018-06-17T10:28:09.158Z,78208.00
2018-06-17T10:29:09.141Z,83360.00
2018-06-17T10:30:09.125Z,75648.00
2018-06-17T10:31:09.087Z,53696.00
2018-06-17T10:32:09.085Z,51520.00
2018-06-17T10:33:09.028Z,50304.00
2018-06-17T10:34:09.040Z,49088.00
2018-06-17T10:35:09.027Z,48640.00
2018-06-17T10:36:08.964Z,47520.00
2018-06-17T10:37:08.950Z,45696.00
2018-06-17T10:38:09.037Z,44288.00
2018-06-17T10:39:08.898Z,45984.00
2018-06-17T10:40:08.859Z,48672.00
2018-06-17T10:41:08.840Z,52096.00
2018-06-17T10:42:08.821Z,53984.00
2018-06-17T10:43:08.792Z,55840.00
2018-06-17T10:44:08.789Z,57408.00
2018-06-17T10:45:08.749Z,57536.00
2018-06-17T10:46:08.740Z,56160.00
2018-06-17T10:47:08.701Z,55264.00
2018-06-17T10:48:08.697Z,53248.00
2018-06-17T10:49:08.663Z,51328.00
2018-06-17T10:50:08.622Z,48832.00
2018-06-17T10:51:08.615Z,48256.00
2018-06-17T10:52:08.566Z,49024.00
2018-06-17T10:53:08.544Z,50464.00
2018-06-17T10:54:08.516Z,51584.00
2018-06-17T10:55:08.508Z,52512.00
2018-06-17T10:56:08.597Z,52832.00
2018-06-17T10:57:08.446Z,53664.00
2018-06-17T10:58:08.451Z,54208.00
2018-06-17T10:59:08.415Z,54880.00
2018-06-17T11:00:08.392Z,55968.00
2018-06-17T11:01:08.368Z,57088.00
2018-06-17T11:02:08.328Z,57824.00
2018-06-17T11:03:08.300Z,60384.00
2018-06-17T11:04:08.268Z,59168.00
2018-06-17T11:05:08.294Z,59840.00
2018-06-17T11:06:08.238Z,59744.00
2018-06-17T11:07:08.223Z,78816.00
2018-06-17T11:08:08.218Z,63200.00
2018-06-17T11:09:08.181Z,89728.00
2018-06-17T11:10:08.132Z,123968.00
2018-06-17T11:11:08.116Z,86048.00
2018-06-17T11:12:08.091Z,130624.00
2018-06-17T11:13:08.109Z,137088.00
2018-06-17T11:14:08.034Z,94944.00
2018-06-17T11:15:08.009Z,60192.00
2018-06-17T11:16:07.977Z,49376.00
2018-06-17T11:17:07.959Z,47712.00
2018-06-17T11:18:07.942Z,46624.00
2018-06-17T11:19:07.903Z,43584.00
2018-06-17T11:20:07.884Z,39904.00
2018-06-17T11:21:07.859Z,38432.00
2018-06-17T11:22:07.836Z,37376.00
2018-06-17T11:23:07.824Z,36480.00
2018-06-17T11:24:07.789Z,35168.00
2018-06-17T11:25:07.764Z,33664.00
2018-06-17T11:26:07.746Z,31872.00
2018-06-17T11:27:07.728Z,30368.00
2018-06-17T11:28:07.716Z,29888.00
2018-06-17T11:29:07.679Z,30176.00
2018-06-17T11:30:07.653Z,31424.00
2018-06-17T11:31:07.617Z,34848.00
2018-06-17T11:32:07.607Z,39744.00
2018-06-17T11:33:07.563Z,45344.00
2018-06-17T11:34:07.560Z,43616.00
2018-06-17T11:35:07.514Z,44320.00
2018-06-17T11:36:07.507Z,43104.00
2018-06-17T11:37:07.484Z,41728.00
2018-06-17T11:38:07.476Z,40352.00
2018-06-17T11:39:07.559Z,39808.00
2018-06-17T11:40:07.478Z,40256.00
2018-06-17T11:41:07.385Z,41792.00
2018-06-17T11:42:07.362Z,45696.00
2018-06-17T11:43:07.368Z,47456.00
2018-06-17T11:44:07.295Z,51904.00
2018-06-17T11:45:07.277Z,62176.00
2018-06-17T11:46:07.320Z,68064.00
2018-06-17T11:47:07.220Z,70240.00
2018-06-17T11:48:07.212Z,72736.00
2018-06-17T11:49:07.683Z,72512.00
2018-06-17T11:50:07.200Z,61184.00
2018-06-17T11:51:07.131Z,80256.00
2018-06-17T11:52:07.102Z,74528.00
2018-06-17T11:53:07.094Z,78976.00
2018-06-17T11:54:07.085Z,72800.00
2018-06-17T11:55:07.047Z,63680.00
2018-06-17T11:56:07.015Z,58144.00
2018-06-17T11:57:07.001Z,54368.00
2018-06-17T11:58:06.984Z,59264.00
2018-06-17T11:59:06.944Z,53600.00
2018-06-17T12:00:06.896Z,57696.00
2018-06-17T12:01:06.891Z,57344.00
2018-06-17T12:02:06.928Z,71584.00
2018-06-17T12:03:06.888Z,77408.00
2018-06-17T12:04:06.825Z,72768.00
2018-06-17T12:05:06.816Z,86208.00
2018-06-17T12:06:06.768Z,63232.00
2018-06-17T12:07:06.754Z,56640.00
2018-06-17T12:08:06.763Z,84864.00
2018-06-17T12:09:06.719Z,81824.00
2018-06-17T12:10:06.693Z,69920.00
2018-06-17T12:11:06.648Z,72320.00
2018-06-17T12:12:06.657Z,74784.00
2018-06-17T12:13:06.629Z,72096.00
2018-06-17T12:14:06.610Z,84864.00
2018-06-17T12:15:06.590Z,39392.00
2018-06-17T12:16:06.544Z,34944.00
2018-06-17T12:17:07.211Z,30400.00
2018-06-17T12:18:06.523Z,25952.00
2018-06-17T12:19:06.620Z,20384.00
2018-06-17T12:20:06.468Z,16188.00
2018-06-17T12:21:06.481Z,13688.00
2018-06-17T12:22:06.539Z,11772.00
2018-06-17T12:23:06.465Z,10648.00
2018-06-17T12:24:06.419Z,10276.00
2018-06-17T12:25:06.478Z,10204.00
2018-06-17T12:26:06.329Z,10412.00
2018-06-17T12:27:06.321Z,10280.00
2018-06-17T12:28:06.315Z,10104.00
2018-06-17T12:29:06.272Z,9940.00
2018-06-17T12:30:06.264Z,9692.00